| time (UTC) | temp C | wind direction | speed KPH | gust KPH | rain 1hr cm | rain 24hr cm | rain mn cm | humidity % | barometer mb |
| 20260504081555 | 10 | 240 | 0.0 | 0.0 | 0.00 | 0.00 | 0.00 | 32 | 1017.2 |
| 20260504081053 | 10 | 240 | 0.0 | 0.0 | 0.00 | 0.00 | 0.00 | 31 | 1017.2 |
| 20260504080551 | 10 | 240 | 0.0 | 0.0 | 0.00 | 0.00 | 0.00 | 32 | 1017.2 |
| 20260504050535 | 10 | 240 | 0.0 | 0.0 | 0.00 | 0.00 | 0.00 | 29 | 1018.2 |
| 20260504045534 | 9 | 240 | 0.0 | 0.0 | 0.00 | 0.00 | 0.00 | 30 | 1018.3 |
| 20260504045034 | 9 | 240 | 0.0 | 0.0 | 0.00 | 0.00 | 0.00 | 30 | 1018.4 |
| 20260504044540 | 10 | 240 | 0.0 | 0.0 | 0.00 | 0.00 | 0.00 | 30 | 1018.4 |
| 20260504044033 | 10 | 240 | 0.0 | 0.0 | 0.00 | 0.00 | 0.00 | 30 | 1018.4 |
| 20260504043533 | 10 | 240 | 0.0 | 0.0 | 0.00 | 0.00 | 0.00 | 30 | 1018.4 |
| 20260504043033 | 10 | 240 | 0.0 | 0.0 | 0.00 | 0.00 | 0.00 | 30 | 1018.3 |
| 20260504042531 | 10 | 240 | 0.0 | 0.0 | 0.00 | 0.00 | 0.00 | 29 | 1018.4 |
| 20260504042035 | 10 | 240 | 0.0 | 0.0 | 0.00 | 0.00 | 0.00 | 30 | 1018.4 |
| 20260504041532 | 10 | 240 | 0.0 | 0.0 | 0.00 | 0.00 | 0.00 | 30 | 1018.3 |
| 20260504041029 | 10 | 240 | 0.0 | 0.0 | 0.00 | 0.00 | 0.00 | 28 | 1018.3 |
| 20260504040529 | 10 | 240 | 0.0 | 0.0 | 0.00 | 0.00 | 0.00 | 28 | 1018.3 |
| 20260504040028 | 10 | 240 | 0.0 | 0.0 | 0.00 | 0.00 | 0.00 | 28 | 1018.3 |
| 20260504035527 | 10 | 240 | 0.0 | 0.0 | 0.00 | 0.00 | 0.00 | 28 | 1018.2 |
| 20260504035027 | 10 | 240 | 0.0 | 0.0 | 0.00 | 0.00 | 0.00 | 29 | 1018.2 |
| 20260504034528 | 10 | 240 | 0.0 | 0.0 | 0.00 | 0.00 | 0.00 | 29 | 1018.2 |
| 20260504034027 | 10 | 240 | 0.0 | 0.0 | 0.00 | 0.00 | 0.00 | 29 | 1018.2 |
| 20260504033529 | 10 | 240 | 0.0 | 0.0 | 0.00 | 0.00 | 0.00 | 28 | 1018.2 |
| 20260504033027 | 10 | 240 | 0.0 | 0.0 | 0.00 | 0.00 | 0.00 | 28 | 1018.2 |
| 20260504032527 | 10 | 240 | 0.0 | 0.0 | 0.00 | 0.00 | 0.00 | 28 | 1018.1 |
| 20260504032027 | 10 | 240 | 0.0 | 0.0 | 0.00 | 0.00 | 0.00 | 28 | 1018.0 |
| 20260504031528 | 10 | 240 | 0.0 | 0.0 | 0.00 | 0.00 | 0.00 | 28 | 1017.9 |
| 20260504031026 | 10 | 240 | 0.0 | 0.0 | 0.00 | 0.00 | 0.00 | 29 | 1018.0 |
| 20260504030526 | 10 | 240 | 0.0 | 0.0 | 0.00 | 0.00 | 0.00 | 29 | 1018.1 |
| 20260504030036 | 10 | 240 | 0.0 | 0.0 | 0.00 | 0.00 | 0.00 | 28 | 1018.1 |
| 20260504025526 | 10 | 240 | 0.0 | 0.0 | 0.00 | 0.00 | 0.00 | 29 | 1018.0 |
| 20260504025029 | 10 | 240 | 0.0 | 0.0 | 0.00 | 0.00 | 0.00 | 29 | 1017.9 |
| 20260504024526 | 10 | 240 | 0.0 | 0.0 | 0.00 | 0.00 | 0.00 | 29 | 1018.0 |
| 20260504024029 | 10 | 240 | 0.0 | 0.0 | 0.00 | 0.00 | 0.00 | 30 | 1017.9 |
| 20260504023527 | 10 | 240 | 0.0 | 0.0 | 0.00 | 0.00 | 0.00 | 30 | 1018.0 |
| 20260504023026 | 9 | 240 | 0.0 | 0.0 | 0.00 | 0.00 | 0.00 | 31 | 1017.9 |
| 20260504022527 | 9 | 240 | 0.0 | 0.0 | 0.00 | 0.00 | 0.00 | 32 | 1017.9 |
| 20260504022027 | 9 | 240 | 0.0 | 0.0 | 0.00 | 0.00 | 0.00 | 33 | 1017.9 |
| 20260504021528 | 9 | 240 | 0.0 | 0.0 | 0.00 | 0.00 | 0.00 | 33 | 1017.8 |
| 20260504021026 | 9 | 240 | 0.0 | 0.0 | 0.00 | 0.00 | 0.00 | 33 | 1017.8 |
| 20260504020524 | 9 | 240 | 0.0 | 0.0 | 0.00 | 0.00 | 0.00 | 34 | 1017.8 |
| 20260504020024 | 9 | 240 | 0.0 | 0.0 | 0.00 | 0.00 | 0.00 | 33 | 1017.7 |
| 20260504015524 | 9 | 240 | 0.0 | 0.0 | 0.00 | 0.00 | 0.00 | 33 | 1017.6 |
| 20260504015027 | 9 | 240 | 0.0 | 0.0 | 0.00 | 0.00 | 0.00 | 33 | 1017.5 |
| 20260504014526 | 9 | 240 | 0.0 | 0.0 | 0.00 | 0.00 | 0.00 | 33 | 1017.5 |
| 20260504014028 | 9 | 240 | 0.0 | 0.0 | 0.00 | 0.00 | 0.00 | 34 | 1017.5 |
| 20260504013528 | 10 | 240 | 0.0 | 0.0 | 0.00 | 0.00 | 0.00 | 34 | 1017.5 |
| 20260504013025 | 10 | 240 | 0.0 | 0.0 | 0.00 | 0.00 | 0.00 | 34 | 1017.4 |
| 20260504012525 | 10 | 240 | 0.0 | 0.0 | 0.00 | 0.00 | 0.00 | 32 | 1017.5 |
| 20260504012024 | 10 | 240 | 0.0 | 0.0 | 0.00 | 0.00 | 0.00 | 31 | 1017.5 |
| 20260504011524 | 10 | 240 | 0.0 | 0.0 | 0.00 | 0.00 | 0.00 | 31 | 1017.5 |
| 20260504011022 | 10 | 240 | 0.0 | 0.0 | 0.00 | 0.00 | 0.00 | 31 | 1017.5 |
| 20260504010525 | 10 | 240 | 0.0 | 0.0 | 0.00 | 0.00 | 0.00 | 32 | 1017.4 |
| 20260504010023 | 10 | 240 | 0.0 | 0.0 | 0.00 | 0.00 | 0.00 | 31 | 1017.3 |
| 20260504005525 | 10 | 240 | 0.0 | 0.0 | 0.00 | 0.00 | 0.00 | 32 | 1017.3 |
| 20260504005023 | 10 | 240 | 0.0 | 0.0 | 0.00 | 0.00 | 0.00 | 33 | 1017.3 |
| 20260504004524 | 10 | 240 | 0.0 | 0.0 | 0.00 | 0.00 | 0.00 | 31 | 1017.2 |
| 20260504004023 | 11 | 240 | 0.0 | 0.0 | 0.00 | 0.00 | 0.00 | 31 | 1017.2 |
| 20260504003522 | 11 | 240 | 0.0 | 0.0 | 0.00 | 0.00 | 0.00 | 30 | 1017.2 |
| 20260504003022 | 11 | 240 | 0.0 | 0.0 | 0.00 | 0.00 | 0.00 | 29 | 1017.1 |
| 20260504002522 | 11 | 240 | 0.0 | 1.6 | 0.00 | 0.00 | 0.00 | 27 | 1017.1 |
| 20260504002022 | 12 | 240 | 0.0 | 1.6 | 0.00 | 0.00 | 0.00 | 27 | 1017.0 |
| 20260504001522 | 12 | 240 | 0.0 | 3.2 | 0.00 | 0.00 | 0.00 | 27 | 1017.0 |
| 20260504001021 | 12 | 240 | 0.0 | 8.0 | 0.00 | 0.00 | 0.00 | 26 | 1017.0 |
| 20260504000521 | 12 | 240 | 0.0 | 8.0 | 0.00 | 0.00 | 0.00 | 25 | 1017.0 |
| 20260504000021 | 12 | 240 | 0.0 | 8.0 | 0.00 | 0.00 | 0.00 | 24 | 1017.0 |
| 20260503235521 | 12 | 239 | 0.0 | 8.0 | 0.00 | 0.00 | 0.00 | 24 | 1016.9 |
| 20260503235021 | 13 | 237 | 0.0 | 12.9 | 0.00 | 0.00 | 0.00 | 24 | 1016.9 |
| 20260503234532 | 13 | 239 | 3.2 | 12.9 | 0.00 | 0.00 | 0.00 | 23 | 1016.8 |
| 20260503234021 | 13 | 195 | 0.0 | 6.4 | 0.00 | 0.00 | 0.00 | 23 | 1016.7 |
| 20260503233520 | 13 | 195 | 1.6 | 6.4 | 0.00 | 0.00 | 0.00 | 23 | 1016.8 |
| 20260503233021 | 13 | 209 | 1.6 | 8.0 | 0.00 | 0.00 | 0.00 | 22 | 1016.8 |
| 20260503232520 | 13 | 227 | 0.0 | 6.4 | 0.00 | 0.00 | 0.00 | 21 | 1016.8 |
| 20260503232021 | 14 | 225 | 0.0 | 6.4 | 0.00 | 0.00 | 0.00 | 21 | 1016.8 |
| 20260503231520 | 14 | 225 | 1.6 | 4.8 | 0.00 | 0.00 | 0.00 | 23 | 1016.8 |
| 20260503231022 | 14 | 225 | 0.0 | 4.8 | 0.00 | 0.00 | 0.00 | 22 | 1016.7 |
| 20260503230522 | 14 | 225 | 1.6 | 4.8 | 0.00 | 0.00 | 0.00 | 21 | 1016.7 |
| 20260503230020 | 15 | 225 | 1.6 | 6.4 | 0.00 | 0.00 | 0.00 | 20 | 1016.7 |
| 20260503225521 | 15 | 225 | 0.0 | 8.0 | 0.00 | 0.00 | 0.00 | 21 | 1016.5 |
| 20260503225022 | 15 | 215 | 1.6 | 8.0 | 0.00 | 0.00 | 0.00 | 20 | 1016.6 |
| 20260503224519 | 15 | 214 | 1.6 | 9.7 | 0.00 | 0.00 | 0.00 | 20 | 1016.5 |
| 20260503224019 | 15 | 207 | 0.0 | 9.7 | 0.00 | 0.00 | 0.00 | 21 | 1016.6 |
| 20260503223521 | 15 | 171 | 3.2 | 12.9 | 0.00 | 0.00 | 0.00 | 19 | 1016.6 |
| 20260503223019 | 15 | 175 | 3.2 | 9.7 | 0.00 | 0.00 | 0.00 | 19 | 1016.5 |
| 20260503222519 | 15 | 191 | 0.0 | 9.7 | 0.00 | 0.00 | 0.00 | 19 | 1016.5 |
| 20260503222022 | 15 | 233 | 1.6 | 11.3 | 0.00 | 0.00 | 0.00 | 20 | 1016.5 |
| 20260503221522 | 16 | 179 | 3.2 | 22.5 | 0.00 | 0.00 | 0.00 | 18 | 1016.6 |
| 20260503221018 | 16 | 195 | 6.4 | 22.5 | 0.00 | 0.00 | 0.00 | 16 | 1016.6 |
| 20260503220519 | 16 | 215 | 4.8 | 11.3 | 0.00 | 0.00 | 0.00 | 16 | 1016.6 |
| 20260503220036 | 17 | 196 | 3.2 | 9.7 | 0.00 | 0.00 | 0.00 | 16 | 1016.7 |
| 20260503215519 | 17 | 177 | 1.6 | 6.4 | 0.00 | 0.00 | 0.00 | 17 | 1016.7 |
| 20260503215017 | 16 | 177 | 0.0 | 9.7 | 0.00 | 0.00 | 0.00 | 16 | 1016.7 |
| 20260503214517 | 17 | 189 | 1.6 | 11.3 | 0.00 | 0.00 | 0.00 | 16 | 1016.7 |
| 20260503214017 | 17 | 215 | 3.2 | 9.7 | 0.00 | 0.00 | 0.00 | 17 | 1016.7 |
| 20260503213516 | 17 | 200 | 1.6 | 9.7 | 0.00 | 0.00 | 0.00 | 17 | 1016.7 |
| 20260503213016 | 17 | 182 | 3.2 | 12.9 | 0.00 | 0.00 | 0.00 | 16 | 1016.8 |
| 20260503212517 | 17 | 220 | 1.6 | 6.4 | 0.00 | 0.00 | 0.00 | 17 | 1016.9 |
| 20260503212018 | 17 | 217 | 1.6 | 11.3 | 0.00 | 0.00 | 0.00 | 17 | 1016.9 |
| 20260503211518 | 17 | 219 | 1.6 | 14.5 | 0.00 | 0.00 | 0.00 | 17 | 1016.9 |
| 20260503211015 | 17 | 267 | 1.6 | 11.3 | 0.00 | 0.00 | 0.00 | 17 | 1016.9 |
| 20260503210514 | 17 | 186 | 0.0 | 9.7 | 0.00 | 0.00 | 0.00 | 17 | 1016.9 |
| 20260503210014 | 17 | 182 | 1.6 | 11.3 | 0.00 | 0.00 | 0.00 | 18 | 1016.9 |
| 20260503205513 | 16 | 234 | 0.0 | 12.9 | 0.00 | 0.00 | 0.00 | 18 | 1016.9 |
| 20260503205013 | 17 | 200 | 3.2 | 14.5 | 0.00 | 0.00 | 0.00 | 15 | 1016.9 |
| 20260503204513 | 17 | 217 | 1.6 | 11.3 | 0.00 | 0.00 | 0.00 | 17 | 1016.8 |
| 20260503204014 | 16 | 191 | 3.2 | 9.7 | 0.00 | 0.00 | 0.00 | 17 | 1016.9 |
| 20260503203512 | 16 | 148 | 3.2 | 12.9 | 0.00 | 0.00 | 0.00 | 17 | 1016.9 |
| 20260503203026 | 16 | 288 | 3.2 | 14.5 | 0.00 | 0.00 | 0.00 | 17 | 1017.0 |
| 20260503202513 | 16 | 184 | 4.8 | 20.9 | 0.00 | 0.00 | 0.00 | 17 | 1017.0 |
| 20260503202013 | 16 | 175 | 4.8 | 20.9 | 0.00 | 0.00 | 0.00 | 16 | 1017.1 |
| 20260503201518 | 17 | 159 | 3.2 | 12.9 | 0.00 | 0.00 | 0.00 | 16 | 1017.1 |
| 20260503201012 | 17 | 252 | 3.2 | 9.7 | 0.00 | 0.00 | 0.00 | 17 | 1017.0 |
| 20260503200511 | 16 | 221 | 1.6 | 14.5 | 0.00 | 0.00 | 0.00 | 16 | 1017.1 |
| 20260503200012 | 17 | 81 | 3.2 | 14.5 | 0.00 | 0.00 | 0.00 | 16 | 1017.3 |
| 20260503195511 | 17 | 196 | 1.6 | 12.9 | 0.00 | 0.00 | 0.00 | 18 | 1017.4 |
| 20260503195009 | 16 | 193 | 3.2 | 12.9 | 0.00 | 0.00 | 0.00 | 16 | 1017.5 |
| 20260503194509 | 16 | 203 | 1.6 | 12.9 | 0.00 | 0.00 | 0.00 | 16 | 1017.4 |
| 20260503194010 | 16 | 193 | 4.8 | 22.5 | 0.00 | 0.00 | 0.00 | 16 | 1017.6 |
| 20260503193513 | 16 | 164 | 4.8 | 22.5 | 0.00 | 0.00 | 0.00 | 15 | 1017.6 |
| 20260503193011 | 16 | 217 | 1.6 | 11.3 | 0.00 | 0.00 | 0.00 | 17 | 1017.7 |
| 20260503192509 | 16 | 211 | 3.2 | 11.3 | 0.00 | 0.00 | 0.00 | 17 | 1017.8 |
| 20260503192007 | 16 | 169 | 3.2 | 11.3 | 0.00 | 0.00 | 0.00 | 16 | 1017.8 |
| 20260503191513 | 16 | 144 | 4.8 | 11.3 | 0.00 | 0.00 | 0.00 | 16 | 1017.9 |
| 20260503191009 | 16 | 118 | 3.2 | 9.7 | 0.00 | 0.00 | 0.00 | 19 | 1018.0 |
| 20260503190505 | 15 | 192 | 3.2 | 9.7 | 0.00 | 0.00 | 0.00 | 19 | 1018.0 |
| 20260503190005 | 15 | 141 | 4.8 | 11.3 | 0.00 | 0.00 | 0.00 | 20 | 1018.1 |
| 20260503185505 | 15 | 208 | 1.6 | 11.3 | 0.00 | 0.00 | 0.00 | 20 | 1018.1 |
| 20260503185005 | 15 | 215 | 3.2 | 12.9 | 0.00 | 0.00 | 0.00 | 21 | 1018.2 |
| 20260503184505 | 15 | 188 | 1.6 | 20.9 | 0.00 | 0.00 | 0.00 | 20 | 1018.4 |
| 20260503184004 | 15 | 175 | 4.8 | 20.9 | 0.00 | 0.00 | 0.00 | 19 | 1018.2 |
| 20260503183504 | 15 | 152 | 3.2 | 20.9 | 0.00 | 0.00 | 0.00 | 19 | 1018.4 |
| 20260503183004 | 15 | 162 | 3.2 | 12.9 | 0.00 | 0.00 | 0.00 | 21 | 1018.3 |
| 20260503182503 | 15 | 158 | 3.2 | 11.3 | 0.00 | 0.00 | 0.00 | 18 | 1018.5 |
| 20260503182005 | 15 | 198 | 1.6 | 12.9 | 0.00 | 0.00 | 0.00 | 22 | 1018.4 |
| 20260503181503 | 15 | 130 | 1.6 | 12.9 | 0.00 | 0.00 | 0.00 | 22 | 1018.4 |
| 20260503181002 | 15 | 256 | 1.6 | 16.1 | 0.00 | 0.00 | 0.00 | 20 | 1018.3 |
| 20260503180503 | 15 | 180 | 4.8 | 16.1 | 0.00 | 0.00 | 0.00 | 19 | 1018.5 |
| 20260503175559 | 14 | 184 | 1.6 | 33.8 | 0.00 | 0.00 | 0.00 | 23 | 1018.4 |
| 20260503175104 | 13 | 177 | 6.4 | 33.8 | 0.00 | 0.00 | 0.00 | 22 | 1018.6 |
| 20260503174559 | 13 | 205 | 3.2 | 14.5 | 0.00 | 0.00 | 0.00 | 24 | 1018.6 |
| 20260503174059 | 13 | 163 | 4.8 | 14.5 | 0.00 | 0.00 | 0.00 | 23 | 1018.7 |
| 20260503173559 | 13 | 183 | 6.4 | 20.9 | 0.00 | 0.00 | 0.00 | 23 | 1018.7 |
| 20260503173103 | 13 | 164 | 4.8 | 17.7 | 0.00 | 0.00 | 0.00 | 23 | 1018.8 |
| 20260503172558 | 13 | 210 | 6.4 | 19.3 | 0.00 | 0.00 | 0.00 | 23 | 1018.8 |
| 20260503172100 | 13 | 193 | 6.4 | 19.3 | 0.00 | 0.00 | 0.00 | 22 | 1019.1 |
| 20260503171558 | 14 | 186 | 4.8 | 12.9 | 0.00 | 0.00 | 0.00 | 22 | 1019.0 |
| 20260503171057 | 14 | 146 | 3.2 | 24.1 | 0.00 | 0.00 | 0.00 | 25 | 1019.0 |
| 20260503170557 | 13 | 208 | 4.8 | 24.1 | 0.00 | 0.00 | 0.00 | 23 | 1019.0 |
| 20260503150535 | 10 | 198 | 1.6 | 16.1 | 0.00 | 0.00 | 0.00 | 34 | 1019.8 |
| 20260503131013 | 5 | 180 | 3.2 | 24.1 | 0.00 | 0.00 | 0.00 | 46 | 1020.1 |
| 20260503130509 | 5 | 174 | 0.0 | 9.7 | 0.00 | 0.00 | 0.00 | 46 | 1020.2 |
| 20260503110544 | 1 | 199 | 0.0 | 8.0 | 0.00 | 0.00 | 0.00 | 56 | 1019.1 |